createdAt,value
2018-09-10T00:00:31.609Z,100950.18
2018-09-10T00:01:38.449Z,100953.39
2018-09-10T00:02:45.812Z,100953.05
2018-09-10T00:03:52.289Z,100953.91
2018-09-10T00:04:58.648Z,100954.59
2018-09-10T00:06:06.060Z,100953.37
2018-09-10T00:07:12.232Z,100950.21
2018-09-10T00:08:18.510Z,100946.61
2018-09-10T00:09:25.712Z,100947.52
2018-09-10T00:10:32.077Z,100952.06
2018-09-10T00:11:38.023Z,100953.34
2018-09-10T00:12:44.712Z,100950.84
2018-09-10T00:13:52.408Z,100952.81
2018-09-10T00:14:59.083Z,100953.17
2018-09-10T00:16:05.470Z,100948.34
2018-09-10T00:17:11.766Z,100950.97
2018-09-10T00:18:18.192Z,100951.35
2018-09-10T00:19:24.603Z,100952.36
2018-09-10T00:20:30.947Z,100952.68
2018-09-10T00:21:37.320Z,100959.33
2018-09-10T00:22:43.727Z,100955.14
2018-09-10T00:23:49.785Z,100963.48
2018-09-10T00:24:56.260Z,100956.48
2018-09-10T00:26:02.665Z,100959.56
2018-09-10T00:27:08.986Z,100959.22
2018-09-10T00:28:15.423Z,100964.03
2018-09-10T00:29:21.812Z,100957.75
2018-09-10T00:30:28.234Z,100957.47
2018-09-10T00:31:34.540Z,100957.67
2018-09-10T00:32:40.886Z,100959.92
2018-09-10T00:33:47.274Z,100954.61
2018-09-10T00:34:54.721Z,100949.68
2018-09-10T00:36:00.675Z,100955.10
2018-09-10T00:37:06.392Z,100946.64
2018-09-10T00:38:12.772Z,100950.81
2018-09-10T00:39:19.119Z,100949.25
2018-09-10T00:40:25.547Z,100946.04
2018-09-10T00:41:31.881Z,100947.24
2018-09-10T00:42:38.072Z,100944.72
2018-09-10T00:43:44.367Z,100943.78
2018-09-10T00:44:50.746Z,100947.91
2018-09-10T00:45:58.166Z,100949.19
2018-09-10T00:47:04.246Z,100947.50
2018-09-10T00:48:10.791Z,100949.13
2018-09-10T00:49:17.192Z,100949.82
2018-09-10T00:50:23.426Z,100942.48
2018-09-10T00:51:29.786Z,100938.97
2018-09-10T00:52:36.212Z,100951.80
2018-09-10T00:53:42.250Z,100951.45
2018-09-10T00:54:48.635Z,100949.81
2018-09-10T00:55:54.884Z,100948.53
2018-09-10T00:57:01.252Z,100951.20
2018-09-10T00:58:07.388Z,100948.13
2018-09-10T00:59:13.487Z,100944.59
2018-09-10T01:00:19.885Z,100944.20
2018-09-10T01:01:26.351Z,100946.02
2018-09-10T01:02:32.528Z,100946.64
2018-09-10T01:03:38.920Z,100941.14
2018-09-10T01:04:45.321Z,100943.55
2018-09-10T01:05:51.632Z,100945.13
2018-09-10T01:06:58.090Z,100939.35
2018-09-10T01:08:03.919Z,100947.69
2018-09-10T01:09:09.693Z,100943.72
2018-09-10T01:10:15.962Z,100945.05
2018-09-10T01:11:22.185Z,100944.16
2018-09-10T01:12:28.591Z,100942.60
2018-09-10T01:13:35.008Z,100941.25
2018-09-10T01:14:41.425Z,100939.02
2018-09-10T01:15:47.874Z,100934.45
2018-09-10T01:16:54.137Z,100935.64
2018-09-10T01:18:00.272Z,100939.30
2018-09-10T01:19:06.352Z,100940.52
2018-09-10T01:20:12.774Z,100934.35
2018-09-10T01:21:18.908Z,100934.66
2018-09-10T01:22:25.303Z,100936.64
2018-09-10T01:23:31.604Z,100930.85
2018-09-10T01:24:38.013Z,100931.59
2018-09-10T01:25:44.436Z,100933.16
2018-09-10T01:26:50.775Z,100929.20
2018-09-10T01:27:56.683Z,100931.16
2018-09-10T01:29:02.913Z,100932.02
2018-09-10T01:30:08.698Z,100929.91
2018-09-10T01:31:14.992Z,100929.13
2018-09-10T01:32:21.293Z,100929.06
2018-09-10T01:33:27.976Z,100925.31
2018-09-10T01:36:05.945Z,100924.20
2018-09-10T01:37:11.976Z,100925.59
2018-09-10T01:38:17.983Z,100922.13
2018-09-10T01:39:24.441Z,100922.88
2018-09-10T01:40:30.557Z,100924.55
2018-09-10T01:41:36.971Z,100918.63
2018-09-10T01:42:43.256Z,100920.33
2018-09-10T01:43:49.596Z,100919.73
2018-09-10T01:44:55.880Z,100920.43
2018-09-10T01:46:02.229Z,100916.34
2018-09-10T01:47:08.503Z,100918.69
2018-09-10T01:48:14.564Z,100920.89
2018-09-10T01:49:20.918Z,100924.25
2018-09-10T01:50:26.911Z,100923.39
2018-09-10T01:51:33.391Z,100919.63
2018-09-10T01:52:40.084Z,100923.80
2018-09-10T01:53:46.514Z,100915.80
2018-09-10T01:54:52.908Z,100919.45
2018-09-10T01:55:59.275Z,100916.52
2018-09-10T01:57:04.748Z,100916.48
2018-09-10T01:58:11.225Z,100916.84
2018-09-10T01:59:17.565Z,100923.28
2018-09-10T02:00:24.534Z,100920.81
2018-09-10T02:01:31.013Z,100919.06
2018-09-10T02:02:37.413Z,100920.30
2018-09-10T02:03:43.828Z,100919.20
2018-09-10T02:04:50.216Z,100919.06
2018-09-10T02:05:56.323Z,100919.75
2018-09-10T02:07:02.463Z,100916.73
2018-09-10T02:08:08.728Z,100917.42
2018-09-10T02:09:15.790Z,100916.25
2018-09-10T02:10:22.246Z,100912.67
2018-09-10T02:11:28.931Z,100916.69
2018-09-10T02:12:35.336Z,100915.64
2018-09-10T02:13:41.624Z,100917.50
2018-09-10T02:14:47.984Z,100913.45
2018-09-10T02:15:54.377Z,100915.63
2018-09-10T02:17:00.720Z,100916.96
2018-09-10T02:18:06.638Z,100915.58
2018-09-10T02:19:13.115Z,100917.67
2018-09-10T02:20:19.382Z,100922.95
2018-09-10T02:21:25.684Z,100920.71
2018-09-10T02:22:32.029Z,100918.06
2018-09-10T02:23:38.340Z,100917.27
2018-09-10T02:24:45.676Z,100918.58
2018-09-10T02:25:52.300Z,100919.48
2018-09-10T02:26:58.743Z,100915.30
2018-09-10T02:28:04.668Z,100915.45
2018-09-10T02:29:11.191Z,100913.42
2018-09-10T02:30:17.861Z,100918.08
2018-09-10T02:31:24.209Z,100914.80
2018-09-10T02:32:30.600Z,100915.98
2018-09-10T02:33:36.930Z,100914.87
2018-09-10T02:34:43.284Z,100921.20
2018-09-10T02:35:50.321Z,100913.70
2018-09-10T02:36:56.740Z,100913.13
2018-09-10T02:38:03.157Z,100918.03
2018-09-10T02:39:09.224Z,100913.47
2018-09-10T02:40:15.688Z,100915.95
2018-09-10T02:41:21.780Z,100916.94
2018-09-10T02:42:28.124Z,100918.41
2018-09-10T02:43:34.531Z,100913.22
2018-09-10T02:44:43.401Z,100918.72
2018-09-10T02:45:49.592Z,100913.77
2018-09-10T02:46:56.652Z,100908.51
2018-09-10T02:48:03.027Z,100909.78
2018-09-10T02:49:09.441Z,100911.14
2018-09-10T02:50:16.772Z,100915.50
2018-09-10T02:51:22.778Z,100918.71
2018-09-10T02:52:28.933Z,100925.61
2018-09-10T02:53:35.191Z,100926.13
2018-09-10T02:54:41.626Z,100928.42
2018-09-10T02:55:48.029Z,100930.47
2018-09-10T02:56:54.479Z,100926.50
2018-09-10T02:58:05.592Z,100928.40
2018-09-10T02:59:12.072Z,100925.69
2018-09-10T03:00:17.498Z,100925.81
2018-09-10T03:01:23.853Z,100928.39
2018-09-10T03:02:30.246Z,100928.21
2018-09-10T03:03:35.761Z,100932.27
2018-09-10T03:04:42.016Z,100934.76
2018-09-10T03:05:48.879Z,100938.86
2018-09-10T03:06:55.366Z,100938.13
2018-09-10T03:08:01.798Z,100936.23
2018-09-10T03:09:07.896Z,100934.75
2018-09-10T03:10:15.223Z,100934.92
2018-09-10T03:11:21.520Z,100936.06
2018-09-10T03:12:27.532Z,100936.52
2018-09-10T03:13:33.924Z,100931.98
2018-09-10T03:14:40.299Z,100933.17
2018-09-10T03:15:47.695Z,100934.59
2018-09-10T03:16:53.908Z,100933.09
2018-09-10T03:18:00.280Z,100936.05
2018-09-10T03:19:06.644Z,100935.07
2018-09-10T03:20:12.933Z,100936.06
2018-09-10T03:21:19.034Z,100935.88
2018-09-10T03:22:25.492Z,100934.89
2018-09-10T03:23:31.539Z,100936.75
2018-09-10T03:24:37.436Z,100936.19
2018-09-10T03:25:43.728Z,100936.79
2018-09-10T03:26:50.113Z,100933.78
2018-09-10T03:27:56.437Z,100931.81
2018-09-10T03:29:02.728Z,100929.69
2018-09-10T03:30:08.357Z,100931.70
2018-09-10T03:31:14.755Z,100919.91
2018-09-10T03:32:21.972Z,100924.31
2018-09-10T03:33:28.340Z,100922.03
2018-09-10T03:34:34.889Z,100918.60
2018-09-10T03:35:41.325Z,100926.70
2018-09-10T03:36:47.737Z,100923.53
2018-09-10T03:37:54.182Z,100928.15
2018-09-10T03:39:00.564Z,100931.63
2018-09-10T03:40:06.315Z,100936.31
2018-09-10T03:41:12.723Z,100936.24
2018-09-10T03:42:19.137Z,100938.88
2018-09-10T03:43:25.523Z,100935.85
2018-09-10T03:44:31.949Z,100937.83
2018-09-10T03:45:38.317Z,100937.17
2018-09-10T03:46:44.750Z,100939.42
2018-09-10T03:47:51.241Z,100942.03
2018-09-10T03:48:58.169Z,100940.36
2018-09-10T03:50:04.217Z,100945.29
2018-09-10T03:51:10.515Z,100939.09
2018-09-10T03:52:16.898Z,100940.08
2018-09-10T03:53:23.720Z,100943.07
2018-09-10T03:54:30.155Z,100940.23
2018-09-10T03:55:36.567Z,100936.23
2018-09-10T03:56:42.971Z,100935.50
2018-09-10T03:57:49.285Z,100929.33
2018-09-10T03:58:55.658Z,100932.52
2018-09-10T04:00:01.981Z,100927.01
2018-09-10T04:01:08.118Z,100932.74
2018-09-10T04:02:14.351Z,100930.78
2018-09-10T04:03:20.676Z,100934.70
2018-09-10T04:04:27.093Z,100938.95
2018-09-10T04:05:33.347Z,100938.59
2018-09-10T04:06:39.813Z,100937.48
2018-09-10T04:07:46.136Z,100935.50
2018-09-10T04:08:52.558Z,100936.89
2018-09-10T04:09:58.958Z,100940.59
2018-09-10T04:11:06.300Z,100939.02
2018-09-10T04:12:13.266Z,100933.25
2018-09-10T04:13:19.781Z,100935.45
2018-09-10T04:14:26.150Z,100930.34
2018-09-10T04:15:32.537Z,100929.20
2018-09-10T04:16:38.825Z,100927.16
2018-09-10T04:17:47.035Z,100923.69
2018-09-10T04:18:53.327Z,100926.75
2018-09-10T04:19:59.428Z,100927.63
2018-09-10T04:21:05.590Z,100927.44
2018-09-10T04:22:15.038Z,100921.49
2018-09-10T04:23:21.416Z,100925.56
2018-09-10T04:24:27.837Z,100926.27
2018-09-10T04:25:34.242Z,100929.13
2018-09-10T04:26:40.554Z,100926.93
2018-09-10T04:27:46.877Z,100925.53
2018-09-10T04:28:53.188Z,100924.20
2018-09-10T04:29:59.618Z,100929.25
2018-09-10T04:31:06.500Z,100921.98
2018-09-10T04:32:12.785Z,100922.80
2018-09-10T04:33:19.049Z,100927.81
2018-09-10T04:34:25.485Z,100923.01
2018-09-10T04:35:31.922Z,100927.55
2018-09-10T04:36:38.321Z,100926.75
2018-09-10T04:37:44.630Z,100924.59
2018-09-10T04:38:51.023Z,100925.74
2018-09-10T04:39:57.452Z,100932.83
2018-09-10T04:41:03.398Z,100934.20
2018-09-10T04:42:09.856Z,100935.13
2018-09-10T04:43:16.304Z,100935.22
2018-09-10T04:44:22.196Z,100936.59
2018-09-10T04:45:28.572Z,100935.47
2018-09-10T04:46:34.926Z,100939.03
2018-09-10T04:47:41.301Z,100937.01
2018-09-10T04:48:48.165Z,100937.09
2018-09-10T04:49:54.181Z,100934.97
2018-09-10T04:51:00.570Z,100932.55
2018-09-10T04:52:07.326Z,100932.95
2018-09-10T04:53:13.689Z,100937.75
2018-09-10T04:54:20.124Z,100937.69
2018-09-10T04:55:26.215Z,100937.23
2018-09-10T04:56:32.613Z,100938.61
2018-09-10T04:57:38.749Z,100941.14
2018-09-10T04:58:45.120Z,100942.05
2018-09-10T04:59:51.441Z,100942.50
2018-09-10T05:00:57.555Z,100943.17
2018-09-10T05:02:04.714Z,100949.29
2018-09-10T05:03:11.127Z,100946.17
2018-09-10T05:04:17.465Z,100948.35
2018-09-10T05:05:24.060Z,100945.80
2018-09-10T05:06:30.480Z,100947.92
2018-09-10T05:07:36.749Z,100938.13
2018-09-10T05:08:43.632Z,100939.31
2018-09-10T05:09:50.074Z,100937.31
2018-09-10T05:10:56.704Z,100936.79
2018-09-10T05:12:03.115Z,100941.06
2018-09-10T05:13:09.516Z,100945.98
2018-09-10T05:14:15.976Z,100947.62
2018-09-10T05:15:21.931Z,100949.94
2018-09-10T05:16:29.002Z,100950.78
2018-09-10T05:17:35.400Z,100954.36
2018-09-10T05:18:41.871Z,100958.70
2018-09-10T05:19:48.240Z,100957.55
2018-09-10T05:20:54.541Z,100956.34
2018-09-10T05:22:00.760Z,100959.22
2018-09-10T05:23:07.270Z,100963.19
2018-09-10T05:24:13.731Z,100963.00
2018-09-10T05:25:19.966Z,100965.55
2018-09-10T05:26:26.433Z,100968.42
2018-09-10T05:27:32.821Z,100966.74
2018-09-10T05:28:39.423Z,100966.45
2018-09-10T05:29:46.214Z,100965.41
2018-09-10T05:30:52.573Z,100963.19
2018-09-10T05:31:59.328Z,100964.20
2018-09-10T05:33:05.761Z,100957.00
2018-09-10T05:34:12.037Z,100962.19
2018-09-10T05:35:18.652Z,100960.16
2018-09-10T05:36:25.109Z,100966.37
2018-09-10T05:37:31.473Z,100967.88
2018-09-10T05:38:37.812Z,100969.61
2018-09-10T05:39:44.785Z,100967.36
2018-09-10T05:40:51.198Z,100969.48
2018-09-10T05:41:57.680Z,100971.28
2018-09-10T05:43:04.129Z,100968.61
2018-09-10T05:44:10.586Z,100962.37
2018-09-10T05:45:16.752Z,100966.20
2018-09-10T05:46:23.228Z,100964.27
2018-09-10T05:47:29.562Z,100961.40
2018-09-10T05:48:36.117Z,100965.41
2018-09-10T05:49:42.533Z,100963.17
2018-09-10T05:50:48.652Z,100963.47
2018-09-10T05:51:54.984Z,100958.19
2018-09-10T05:53:01.405Z,100957.33
2018-09-10T05:54:08.278Z,100957.95
2018-09-10T05:55:14.847Z,100954.16
2018-09-10T05:56:21.179Z,100967.86
2018-09-10T05:57:27.481Z,100956.42
2018-09-10T05:58:34.880Z,100960.23
2018-09-10T05:59:41.434Z,100963.38
2018-09-10T06:00:47.845Z,100966.96
2018-09-10T06:01:54.082Z,100967.73
2018-09-10T06:03:00.772Z,100964.55
2018-09-10T06:04:07.177Z,100965.44
2018-09-10T06:05:13.505Z,100961.34
2018-09-10T06:06:19.600Z,100960.41
2018-09-10T06:07:25.935Z,100965.92
2018-09-10T06:08:32.246Z,100963.31
2018-09-10T06:09:38.514Z,100963.28
2018-09-10T06:10:44.858Z,100961.42
2018-09-10T06:11:51.173Z,100963.67
2018-09-10T06:12:57.910Z,100967.12
2018-09-10T06:14:04.128Z,100966.56
2018-09-10T06:15:10.548Z,100971.72
2018-09-10T06:16:17.628Z,100971.59
2018-09-10T06:17:24.263Z,100979.36
2018-09-10T06:18:30.546Z,100973.86
2018-09-10T06:19:36.852Z,100982.11
2018-09-10T06:20:43.162Z,100983.55
2018-09-10T06:21:49.221Z,100987.16
2018-09-10T06:22:55.607Z,100986.08
2018-09-10T06:24:01.903Z,100991.05
2018-09-10T06:25:08.365Z,100986.52
2018-09-10T06:26:14.500Z,100989.77
2018-09-10T06:27:20.973Z,100990.44
2018-09-10T06:28:27.353Z,100984.69
2018-09-10T06:29:33.764Z,100987.03
2018-09-10T06:30:40.123Z,100990.27
2018-09-10T06:31:46.518Z,100987.91
2018-09-10T06:32:52.957Z,100980.33
2018-09-10T06:33:58.994Z,100982.08
2018-09-10T06:35:05.641Z,100978.25
2018-09-10T06:36:12.095Z,100971.19
2018-09-10T06:37:18.545Z,100971.97
2018-09-10T06:38:25.317Z,100968.97
2018-09-10T06:39:31.719Z,100975.67
2018-09-10T06:40:38.006Z,100979.56
2018-09-10T06:41:44.429Z,100975.48
2018-09-10T06:42:50.787Z,100980.50
2018-09-10T06:43:57.151Z,100978.12
2018-09-10T06:45:04.310Z,100976.42
2018-09-10T06:46:10.696Z,100976.42
2018-09-10T06:47:17.120Z,100979.27
2018-09-10T06:48:23.558Z,100980.45
2018-09-10T06:49:29.848Z,100980.61
2018-09-10T06:50:36.241Z,100970.56
2018-09-10T06:51:42.665Z,100976.13
2018-09-10T06:52:49.005Z,100968.82
2018-09-10T06:53:55.283Z,100976.64
2018-09-10T06:55:01.718Z,100980.21
2018-09-10T06:56:07.320Z,100976.94
2018-09-10T06:57:13.376Z,100976.55
2018-09-10T06:58:19.849Z,100976.48
2018-09-10T06:59:26.121Z,100975.19
2018-09-10T07:00:32.510Z,100976.72
2018-09-10T07:01:38.966Z,100966.40
2018-09-10T07:02:45.275Z,100975.73
2018-09-10T07:03:52.042Z,100975.75
2018-09-10T07:04:58.397Z,100970.45
2018-09-10T07:06:04.748Z,100968.98
2018-09-10T07:07:11.133Z,100966.08
2018-09-10T07:08:17.581Z,100959.99
2018-09-10T07:09:23.884Z,100958.37
2018-09-10T07:10:30.053Z,100954.36
2018-09-10T07:11:36.529Z,100949.06
2018-09-10T07:12:42.951Z,100949.73
2018-09-10T07:13:49.634Z,100946.69
2018-09-10T07:14:55.916Z,100949.92
2018-09-10T07:16:02.275Z,100952.94
2018-09-10T07:17:08.643Z,100951.52
2018-09-10T07:18:15.100Z,100958.58
2018-09-10T07:19:21.349Z,100959.25
2018-09-10T07:20:27.493Z,100954.95
2018-09-10T07:21:34.040Z,100950.84
2018-09-10T07:22:40.449Z,100951.23
2018-09-10T07:23:47.193Z,100951.56
2018-09-10T07:24:53.469Z,100952.28
2018-09-10T07:26:00.079Z,100950.48
2018-09-10T07:27:06.129Z,100954.06
2018-09-10T07:28:13.112Z,100950.28
2018-09-10T07:29:19.519Z,100951.48
2018-09-10T07:30:25.820Z,100953.39
2018-09-10T07:31:32.213Z,100958.19
2018-09-10T07:32:38.514Z,100957.12
2018-09-10T07:33:44.919Z,100958.95
2018-09-10T07:34:51.285Z,100951.62
2018-09-10T07:35:57.421Z,100953.28
2018-09-10T07:37:03.721Z,100952.81
2018-09-10T07:38:10.062Z,100950.94
2018-09-10T07:39:16.365Z,100943.78
2018-09-10T07:40:22.761Z,100946.92
2018-09-10T07:41:29.025Z,100952.09
2018-09-10T07:42:35.354Z,100950.91
2018-09-10T07:43:41.515Z,100950.64
2018-09-10T07:44:47.580Z,100950.43
2018-09-10T07:45:53.883Z,100951.03
2018-09-10T07:46:59.797Z,100946.78
2018-09-10T07:48:06.989Z,100946.70
2018-09-10T07:49:13.351Z,100945.59
2018-09-10T07:50:19.665Z,100952.31
2018-09-10T07:51:25.916Z,100951.41
2018-09-10T07:52:32.276Z,100955.77
2018-09-10T07:53:38.617Z,100958.63
2018-09-10T07:54:44.906Z,100962.47
2018-09-10T07:55:51.319Z,100957.04
2018-09-10T07:56:57.644Z,100959.47
2018-09-10T07:58:04.023Z,100961.77
2018-09-10T07:59:10.431Z,100968.52
2018-09-10T08:00:16.874Z,100964.91
2018-09-10T08:01:23.217Z,100965.73
2018-09-10T08:02:29.441Z,100959.93
2018-09-10T08:03:35.843Z,100963.66
2018-09-10T08:04:41.797Z,100959.02
2018-09-10T08:05:48.213Z,100961.44
2018-09-10T08:06:54.208Z,100962.70
2018-09-10T08:08:00.238Z,100963.73
2018-09-10T08:09:05.686Z,100965.19
2018-09-10T08:10:12.247Z,100969.31
2018-09-10T08:11:18.671Z,100965.67
2018-09-10T08:12:25.045Z,100961.84
2018-09-10T08:13:31.317Z,100966.80
2018-09-10T08:14:37.673Z,100966.69
2018-09-10T08:15:44.021Z,100962.98
2018-09-10T08:16:50.129Z,100963.09
2018-09-10T08:17:56.428Z,100966.14
2018-09-10T08:19:02.765Z,100961.50
2018-09-10T08:20:08.369Z,100958.61
2018-09-10T08:21:14.428Z,100959.23
2018-09-10T08:22:20.873Z,100956.99
2018-09-10T08:23:27.203Z,100947.62
2018-09-10T08:24:33.553Z,100953.20
2018-09-10T08:25:40.005Z,100950.95
2018-09-10T08:26:46.320Z,100952.24
2018-09-10T08:27:52.624Z,100951.42
2018-09-10T08:28:58.975Z,100952.09
2018-09-10T08:30:26.097Z,100949.89
2018-09-10T08:31:32.521Z,100950.27
2018-09-10T08:32:38.753Z,100954.67
2018-09-10T08:33:45.009Z,100954.22
2018-09-10T08:34:50.881Z,100954.22
2018-09-10T08:35:57.168Z,100958.35
2018-09-10T08:37:03.585Z,100957.80
2018-09-10T08:38:09.807Z,100961.20
2018-09-10T08:39:16.070Z,100954.05
2018-09-10T08:40:22.014Z,100960.76
2018-09-10T08:41:29.270Z,100956.09
2018-09-10T08:42:34.864Z,100958.47
2018-09-10T08:43:41.106Z,100955.48
2018-09-10T08:44:46.799Z,100948.09
2018-09-10T08:45:53.017Z,100951.55
2018-09-10T08:46:59.376Z,100941.97
2018-09-10T08:48:05.702Z,100947.47
2018-09-10T08:49:11.828Z,100949.73
2018-09-10T08:50:18.129Z,100949.91
2018-09-10T08:51:23.821Z,100951.21
2018-09-10T08:52:29.803Z,100953.67
2018-09-10T08:53:35.941Z,100958.58
2018-09-10T08:54:42.835Z,100961.69
2018-09-10T08:55:49.416Z,100963.63
2018-09-10T08:56:55.767Z,100960.77
2018-09-10T08:58:02.113Z,100969.92
2018-09-10T08:59:08.225Z,100965.63
2018-09-10T09:00:14.295Z,100968.28
2018-09-10T09:01:20.283Z,100969.78
2018-09-10T09:02:26.650Z,100969.49
2018-09-10T09:03:32.336Z,100966.75
2018-09-10T09:04:38.779Z,100961.69
2018-09-10T09:05:45.039Z,100963.27
2018-09-10T09:06:51.388Z,100959.09
2018-09-10T09:07:57.712Z,100959.06
2018-09-10T09:09:03.735Z,100962.73
2018-09-10T09:10:10.018Z,100960.17
2018-09-10T09:11:16.287Z,100961.59
2018-09-10T09:12:22.629Z,100964.21
2018-09-10T09:13:28.913Z,100966.77
2018-09-10T09:14:34.899Z,100965.92
2018-09-10T09:15:41.236Z,100965.34
2018-09-10T09:16:47.562Z,100963.01
2018-09-10T09:17:53.868Z,100955.65
2018-09-10T09:19:00.164Z,100954.77
2018-09-10T09:20:06.369Z,100954.56
2018-09-10T09:21:12.824Z,100959.19
2018-09-10T09:22:19.126Z,100951.67
2018-09-10T09:23:25.208Z,100956.09
2018-09-10T09:24:31.695Z,100952.05
2018-09-10T09:25:37.973Z,100949.76
2018-09-10T09:26:44.251Z,100942.00
2018-09-10T09:27:50.693Z,100942.52
2018-09-10T09:28:57.030Z,100936.37
2018-09-10T09:30:03.649Z,100935.26
2018-09-10T09:31:10.220Z,100933.97
2018-09-10T09:32:16.656Z,100938.61
2018-09-10T09:33:22.964Z,100929.95
2018-09-10T09:34:29.071Z,100929.52
2018-09-10T09:35:35.260Z,100930.31
2018-09-10T09:38:31.032Z,100924.36
2018-09-10T09:40:04.932Z,100927.64
2018-09-10T09:41:40.612Z,100925.98
2018-09-10T09:43:05.675Z,100927.58
2018-09-10T09:45:49.113Z,100931.67
2018-09-10T09:46:55.473Z,100923.17
2018-09-10T09:48:01.825Z,100928.23
2018-09-10T09:49:08.103Z,100924.40
2018-09-10T09:50:14.442Z,100925.95
2018-09-10T09:51:20.789Z,100929.67
2018-09-10T09:52:27.001Z,100932.13
2018-09-10T09:53:33.312Z,100929.29
2018-09-10T09:54:39.649Z,100933.24
2018-09-10T09:55:46.001Z,100927.80
2018-09-10T09:56:52.271Z,100928.59
2018-09-10T09:57:58.598Z,100923.17
2018-09-10T09:59:04.554Z,100923.23
2018-09-10T10:00:10.331Z,100925.25
2018-09-10T10:01:16.378Z,100928.69
2018-09-10T10:02:22.424Z,100919.86
2018-09-10T10:03:28.662Z,100929.41
2018-09-10T10:04:35.047Z,100931.94
2018-09-10T10:05:41.668Z,100930.66
2018-09-10T10:06:47.987Z,100935.44
2018-09-10T10:07:54.279Z,100926.92
2018-09-10T10:09:00.584Z,100930.22
2018-09-10T10:10:07.027Z,100933.24
2018-09-10T10:11:13.717Z,100926.16
2018-09-10T10:12:20.258Z,100920.48
2018-09-10T10:13:26.840Z,100923.70
2018-09-10T10:14:33.175Z,100927.83
2018-09-10T10:15:39.504Z,100929.33
2018-09-10T10:16:45.792Z,100926.62
2018-09-10T10:17:52.093Z,100926.81
2018-09-10T10:18:58.420Z,100927.09
2018-09-10T10:20:04.770Z,100930.16
2018-09-10T10:21:11.084Z,100933.39
2018-09-10T10:22:17.352Z,100932.20
2018-09-10T10:23:24.117Z,100933.98
2018-09-10T10:24:30.494Z,100933.77
2018-09-10T10:25:36.845Z,100937.41
2018-09-10T10:26:43.121Z,100933.81
2018-09-10T10:27:49.429Z,100934.39
2018-09-10T10:28:55.735Z,100934.66
2018-09-10T10:30:02.074Z,100936.28
2018-09-10T10:31:08.284Z,100935.80
2018-09-10T10:32:14.577Z,100931.64
2018-09-10T10:33:20.929Z,100941.17
2018-09-10T10:34:27.207Z,100939.16
2018-09-10T10:35:33.639Z,100929.81
2018-09-10T10:36:39.952Z,100934.07
2018-09-10T10:37:46.244Z,100934.12
2018-09-10T10:38:52.561Z,100930.47
2018-09-10T10:39:58.906Z,100933.34
2018-09-10T10:41:05.179Z,100926.32
2018-09-10T10:42:11.460Z,100923.25
2018-09-10T10:43:17.850Z,100918.81
2018-09-10T10:44:24.117Z,100924.86
2018-09-10T10:45:30.442Z,100924.42
2018-09-10T10:46:36.752Z,100920.96
2018-09-10T10:47:42.723Z,100922.05
2018-09-10T10:48:48.942Z,100919.30
2018-09-10T10:49:55.260Z,100919.39
2018-09-10T10:51:01.392Z,100920.34
2018-09-10T10:52:07.728Z,100923.80
2018-09-10T10:53:14.011Z,100921.05
2018-09-10T10:54:20.332Z,100921.55
2018-09-10T10:55:26.608Z,100922.84
2018-09-10T10:56:33.048Z,100920.50
2018-09-10T10:57:39.449Z,100928.73
2018-09-10T10:58:45.756Z,100921.43
2018-09-10T10:59:51.957Z,100922.82
2018-09-10T11:00:58.273Z,100922.53
2018-09-10T11:02:04.611Z,100920.42
2018-09-10T11:03:11.128Z,100919.13
2018-09-10T11:04:17.604Z,100912.98
2018-09-10T11:05:24.148Z,100912.70
2018-09-10T11:06:30.458Z,100913.13
2018-09-10T11:07:36.791Z,100921.75
2018-09-10T11:08:43.177Z,100914.67
2018-09-10T11:09:49.420Z,100912.64
2018-09-10T11:10:55.668Z,100916.28
2018-09-10T11:12:02.030Z,100914.23
2018-09-10T11:13:08.284Z,100916.75
2018-09-10T11:14:14.555Z,100912.89
2018-09-10T11:15:20.757Z,100919.15
2018-09-10T11:16:27.133Z,100903.55
2018-09-10T11:17:33.693Z,100913.23
2018-09-10T11:18:39.977Z,100906.20
2018-09-10T11:19:46.219Z,100903.39
2018-09-10T11:20:52.417Z,100900.88
2018-09-10T11:21:58.765Z,100900.34
2018-09-10T11:23:04.429Z,100901.61
2018-09-10T11:24:10.767Z,100899.13
2018-09-10T11:25:16.974Z,100899.23
2018-09-10T11:26:23.245Z,100896.43
2018-09-10T11:27:29.495Z,100893.45
2018-09-10T11:28:35.730Z,100887.52
2018-09-10T11:29:42.006Z,100892.30
2018-09-10T11:30:48.287Z,100882.50
2018-09-10T11:31:54.642Z,100879.61
2018-09-10T11:33:00.715Z,100884.98
2018-09-10T11:34:06.985Z,100877.11
2018-09-10T11:35:13.213Z,100887.17
2018-09-10T11:36:19.455Z,100886.10
2018-09-10T11:37:25.713Z,100881.59
2018-09-10T11:38:31.629Z,100876.97
2018-09-10T11:39:37.689Z,100882.03
2018-09-10T11:40:43.966Z,100882.33
2018-09-10T11:41:50.780Z,100879.10
2018-09-10T11:42:57.006Z,100881.43
2018-09-10T11:44:03.264Z,100878.38
2018-09-10T11:45:09.542Z,100879.45
2018-09-10T11:46:15.848Z,100882.09
2018-09-10T11:47:21.952Z,100880.44
2018-09-10T11:48:28.365Z,100879.67
2018-09-10T11:49:34.685Z,100879.11
2018-09-10T11:50:40.997Z,100869.91
2018-09-10T11:51:47.250Z,100871.17
2018-09-10T11:52:53.537Z,100870.18
2018-09-10T11:53:59.758Z,100873.47
2018-09-10T11:55:05.368Z,100876.04
2018-09-10T11:56:11.321Z,100870.46
2018-09-10T11:57:17.578Z,100867.92
2018-09-10T11:58:23.455Z,100862.38
2018-09-10T11:59:29.336Z,100854.93
2018-09-10T12:00:35.307Z,100861.16
2018-09-10T12:01:41.574Z,100864.27
2018-09-10T12:02:47.937Z,100862.03
2018-09-10T12:03:54.076Z,100859.63
2018-09-10T12:05:00.002Z,100864.78
2018-09-10T12:06:05.960Z,100861.89
2018-09-10T12:07:11.922Z,100858.51
2018-09-10T12:08:18.161Z,100863.08
2018-09-10T12:09:24.152Z,100867.22
2018-09-10T12:10:30.113Z,100863.80
2018-09-10T12:11:36.038Z,100865.23
2018-09-10T12:12:42.011Z,100858.59
2018-09-10T12:13:47.973Z,100862.72
2018-09-10T12:14:53.896Z,100864.77
2018-09-10T12:15:59.835Z,100855.11
2018-09-10T12:17:04.814Z,100854.68
2018-09-10T12:18:10.809Z,100859.00
2018-09-10T12:19:16.780Z,100859.00
2018-09-10T12:20:22.498Z,100853.52
2018-09-10T12:21:28.613Z,100849.86
2018-09-10T12:22:34.589Z,100850.75
2018-09-10T12:23:40.792Z,100848.16
2018-09-10T12:24:46.720Z,100845.45
2018-09-10T12:25:52.650Z,100841.77
2018-09-10T12:26:58.569Z,100842.81
2018-09-10T12:28:04.181Z,100845.09
2018-09-10T12:29:10.114Z,100846.50
2018-09-10T12:30:16.356Z,100842.92
2018-09-10T12:31:22.285Z,100843.28
2018-09-10T12:32:28.564Z,100837.33
2018-09-10T12:33:34.731Z,100839.39
2018-09-10T12:34:40.701Z,100843.55
2018-09-10T12:35:46.616Z,100832.23
2018-09-10T12:36:52.578Z,100833.44
2018-09-10T12:37:58.616Z,100830.70
2018-09-10T12:39:03.955Z,100828.92
2018-09-10T12:40:09.945Z,100842.31
2018-09-10T12:41:17.365Z,100834.86
2018-09-10T12:42:23.283Z,100835.30
2018-09-10T12:43:29.231Z,100837.12